createdAt,value
2023-01-19T00:06:22.397Z,11.63
2023-01-19T00:10:04.249Z,12.10
2023-01-19T00:13:46.664Z,12.93
2023-01-19T00:17:39.359Z,13.77
2023-01-19T00:21:03.193Z,13.45
2023-01-19T00:32:25.688Z,11.57
2023-01-19T00:36:19.634Z,14.73
2023-01-19T00:39:52.714Z,13.60
2023-01-19T00:43:34.008Z,13.38
2023-01-19T00:46:45.836Z,14.48
2023-01-19T00:50:04.177Z,12.13
2023-01-19T00:53:21.423Z,12.82
2023-01-19T01:00:33.466Z,11.20
2023-01-19T01:08:35.792Z,11.63
2023-01-19T01:12:25.930Z,11.82
2023-01-19T01:19:59.540Z,13.07
2023-01-19T01:23:35.723Z,12.10
2023-01-19T01:27:00.999Z,11.17
2023-01-19T01:30:16.256Z,11.23
2023-01-19T01:33:40.403Z,10.02
2023-01-19T01:37:41.617Z,7.75
2023-01-19T01:49:00.189Z,8.52
2023-01-19T01:53:07.520Z,8.15
2023-01-19T01:56:39.391Z,7.25
2023-01-19T02:00:02.563Z,7.22
2023-01-19T02:03:40.435Z,6.20
2023-01-19T02:07:46.240Z,7.30
2023-01-19T02:11:17.689Z,6.40
2023-01-19T02:15:37.725Z,5.70
2023-01-19T02:19:01.210Z,6.22
2023-01-19T02:22:34.076Z,5.33
2023-01-19T02:26:10.340Z,4.85
2023-01-19T02:29:33.646Z,3.70
2023-01-19T02:32:56.232Z,4.10
2023-01-19T02:36:28.137Z,5.28
2023-01-19T02:39:49.984Z,3.67
2023-01-19T02:43:24.230Z,5.43
2023-01-19T02:47:00.566Z,3.70
2023-01-19T02:50:28.980Z,3.92
2023-01-19T02:58:25.316Z,3.20
2023-01-19T03:02:07.497Z,3.67
2023-01-19T03:06:05.240Z,3.65
2023-01-19T03:09:41.112Z,3.78
2023-01-19T03:17:01.186Z,2.23
2023-01-19T03:20:14.867Z,2.60
2023-01-19T03:23:37.112Z,3.17
2023-01-19T03:27:09.875Z,0.68
2023-01-19T03:30:38.526Z,1.60
2023-01-19T03:49:25.416Z,1.60
2023-01-19T03:52:42.785Z,3.47
2023-01-19T03:56:27.680Z,1.92
2023-01-19T03:59:54.324Z,2.45
2023-01-19T04:02:59.748Z,1.33
2023-01-19T04:06:31.328Z,1.77
2023-01-19T04:09:51.288Z,2.00
2023-01-19T04:13:06.075Z,3.20
2023-01-19T04:16:23.377Z,2.00
2023-01-19T04:19:27.858Z,1.75
2023-01-19T04:22:48.148Z,2.53
2023-01-19T04:26:17.337Z,2.92
2023-01-19T04:33:25.096Z,2.08
2023-01-19T04:37:24.723Z,2.58
2023-01-19T04:40:49.546Z,1.10
2023-01-19T04:47:31.394Z,2.03
2023-01-19T04:58:45.376Z,1.37
2023-01-19T05:01:57.209Z,2.33
2023-01-19T05:05:44.401Z,1.23
2023-01-19T05:08:55.828Z,0.45
2023-01-19T05:12:07.107Z,1.30
2023-01-19T05:15:48.427Z,0.77
2023-01-19T05:18:57.373Z,0.90
2023-01-19T05:22:30.699Z,1.15
2023-01-19T05:30:02.489Z,1.50
2023-01-19T05:37:15.495Z,1.33
2023-01-19T05:40:39.748Z,1.17
2023-01-19T05:56:31.737Z,3.00
2023-01-19T06:42:37.369Z,1.33
2023-01-19T09:59:26.237Z,15.03
2023-01-19T10:02:54.559Z,12.00
2023-01-19T10:06:57.742Z,12.32
2023-01-19T10:10:19.276Z,15.02
2023-01-19T10:18:13.356Z,15.37
2023-01-19T10:21:52.555Z,12.00
2023-01-19T10:25:42.294Z,10.95
2023-01-19T10:48:20.300Z,12.27
2023-01-19T11:32:46.491Z,10.70
2023-01-19T11:36:28.219Z,10.20
2023-01-19T11:48:04.529Z,8.35
2023-01-19T12:08:20.539Z,9.45
2023-01-19T12:49:36.570Z,13.70
2023-01-19T14:28:40.466Z,13.05
2023-01-19T14:32:27.244Z,14.13
2023-01-19T14:35:55.628Z,13.50
2023-01-19T14:43:08.011Z,15.03
2023-01-19T14:46:24.381Z,10.68
2023-01-19T14:49:38.475Z,13.30
2023-01-19T14:52:52.709Z,13.62
2023-01-19T14:56:54.548Z,13.52
2023-01-19T15:00:19.186Z,12.97
2023-01-19T15:03:43.367Z,17.52
2023-01-19T15:07:00.408Z,14.73
2023-01-19T15:10:21.301Z,12.55
2023-01-19T15:37:46.858Z,19.97
2023-01-19T16:08:54.037Z,23.08
2023-01-19T16:12:09.232Z,17.87
2023-01-19T16:15:58.293Z,19.63
2023-01-19T17:10:00.490Z,20.62
2023-01-19T18:13:50.671Z,12.70
2023-01-19T18:59:03.139Z,15.05
2023-01-19T19:10:15.811Z,15.73
2023-01-19T19:21:12.256Z,14.48
2023-01-19T19:28:35.300Z,14.07
2023-01-19T19:31:37.400Z,11.40
2023-01-19T19:35:38.119Z,15.00
2023-01-19T19:38:57.269Z,16.25
2023-01-19T19:41:59.379Z,13.52
2023-01-19T19:45:50.301Z,15.23
2023-01-19T19:48:59.377Z,19.48
2023-01-19T19:52:08.233Z,15.80
2023-01-19T19:55:44.279Z,15.23
2023-01-19T19:58:58.744Z,15.07
2023-01-19T21:30:26.620Z,15.77
2023-01-19T21:33:47.648Z,13.80
2023-01-19T21:37:10.976Z,15.83
2023-01-19T21:40:45.885Z,16.33
2023-01-19T21:48:37.209Z,15.93
2023-01-19T21:52:06.438Z,14.45
2023-01-19T21:56:10.339Z,16.03
2023-01-19T21:59:14.536Z,14.73
2023-01-19T22:02:39.560Z,15.77
2023-01-19T22:06:13.152Z,15.65
2023-01-19T22:09:24.710Z,17.65
2023-01-19T22:12:56.416Z,15.67
2023-01-19T22:16:25.397Z,14.20
2023-01-19T22:20:01.917Z,11.88
2023-01-19T22:23:21.400Z,15.10
2023-01-19T22:26:57.339Z,17.15
2023-01-19T22:30:08.310Z,13.97
2023-01-19T22:33:28.556Z,17.27
2023-01-19T22:36:34.503Z,17.12
2023-01-19T22:47:21.728Z,15.03
2023-01-19T22:50:58.973Z,17.25
2023-01-19T22:58:17.004Z,15.70
2023-01-19T23:01:44.368Z,14.10
2023-01-19T23:09:02.844Z,14.57
2023-01-19T23:12:18.377Z,13.50
2023-01-19T23:16:00.732Z,16.65
2023-01-19T23:19:21.422Z,15.68
2023-01-19T23:22:26.355Z,14.13
2023-01-19T23:26:16.455Z,15.13
2023-01-19T23:29:49.386Z,15.85
2023-01-19T23:32:57.891Z,19.33
2023-01-19T23:36:14.183Z,13.93
2023-01-19T23:39:29.400Z,16.30
2023-01-19T23:42:38.333Z,13.05
2023-01-19T23:45:55.454Z,13.40
2023-01-19T23:49:23.073Z,14.18
2023-01-19T23:56:29.424Z,15.33
2023-01-19T23:59:44.677Z,14.55
